createdAt,value
2023-01-30T05:58:10.638Z,12.95
2023-01-30T06:01:23.823Z,16.45
2023-01-30T06:04:27.174Z,17.00
2023-01-30T06:07:29.991Z,15.98
2023-01-30T06:10:33.038Z,16.00
2023-01-30T06:13:37.289Z,21.27
2023-01-30T06:16:41.045Z,12.25
2023-01-30T06:19:44.163Z,15.98
2023-01-30T06:22:49.519Z,11.85
2023-01-30T06:25:53.737Z,30.75
2023-01-30T06:29:37.215Z,14.35
2023-01-30T06:32:42.775Z,20.08
2023-01-30T06:35:54.321Z,13.27
2023-01-30T06:38:57.787Z,17.95
2023-01-30T06:42:20.913Z,16.70
2023-01-30T06:45:32.529Z,11.95
2023-01-30T06:49:00.631Z,11.98
2023-01-30T06:52:45.791Z,20.37
2023-01-30T06:56:28.755Z,12.00
2023-01-30T07:00:15.624Z,12.52
2023-01-30T07:03:58.580Z,14.68
2023-01-30T07:07:41.110Z,23.67
2023-01-30T07:11:44.214Z,12.75
2023-01-30T07:15:27.017Z,13.43
2023-01-30T07:23:08.230Z,14.80
2023-01-30T07:27:12.904Z,19.77
2023-01-30T07:30:59.346Z,14.10
2023-01-30T07:35:04.925Z,18.80
2023-01-30T07:38:51.983Z,16.17
2023-01-30T07:42:59.844Z,16.60
2023-01-30T07:46:45.188Z,14.68
2023-01-30T07:50:48.436Z,15.85
2023-01-30T07:55:01.194Z,14.20
2023-01-30T08:02:26.778Z,14.15
2023-01-30T08:06:10.284Z,17.65
2023-01-30T08:09:52.832Z,11.95
2023-01-30T08:13:39.961Z,16.83
2023-01-30T08:17:02.726Z,17.87
2023-01-30T08:21:07.128Z,19.25
2023-01-30T08:24:49.918Z,12.70
2023-01-30T08:28:53.146Z,17.45
2023-01-30T08:32:16.224Z,14.45
2023-01-30T08:36:19.308Z,14.48
2023-01-30T08:40:02.108Z,13.88
2023-01-30T08:43:45.197Z,16.42
2023-01-30T08:47:27.792Z,19.10
2023-01-30T08:51:30.814Z,15.95
2023-01-30T08:54:55.375Z,14.85
2023-01-30T08:58:58.275Z,12.23
2023-01-30T09:02:41.157Z,13.82
2023-01-30T09:06:17.836Z,16.42
2023-01-30T09:09:25.928Z,16.40
2023-01-30T09:12:29.185Z,13.80
2023-01-30T09:15:32.849Z,12.35
2023-01-30T09:18:42.199Z,10.85
2023-01-30T09:21:45.671Z,15.57
2023-01-30T09:24:53.497Z,12.90
2023-01-30T09:28:06.776Z,11.45
2023-01-30T09:31:10.607Z,14.52
2023-01-30T09:34:13.757Z,17.77
2023-01-30T09:37:19.293Z,13.60
2023-01-30T09:40:31.599Z,12.55
2023-01-30T09:44:16.780Z,12.82
2023-01-30T09:47:42.346Z,10.98
2023-01-30T09:50:51.497Z,15.70
2023-01-30T09:54:27.587Z,14.52
2023-01-30T09:57:49.203Z,12.85
2023-01-30T10:01:06.649Z,15.30
2023-01-30T10:04:42.030Z,10.07
2023-01-30T10:08:20.883Z,15.75
2023-01-30T10:11:59.854Z,13.00
2023-01-30T10:15:33.496Z,12.75
2023-01-30T10:18:43.924Z,16.08
2023-01-30T10:21:53.873Z,12.65
2023-01-30T10:28:58.869Z,13.82
2023-01-30T10:32:30.274Z,12.93
2023-01-30T10:36:04.886Z,10.38
2023-01-30T10:39:28.662Z,17.00
2023-01-30T10:42:47.384Z,10.60
2023-01-30T10:46:10.909Z,12.00
2023-01-30T10:49:52.968Z,11.52
2023-01-30T10:53:14.782Z,12.02
2023-01-30T10:56:25.503Z,13.98
2023-01-30T10:59:41.030Z,14.40
2023-01-30T11:03:11.402Z,13.73
2023-01-30T11:06:18.817Z,16.92
2023-01-30T11:09:48.589Z,14.02
2023-01-30T11:12:56.100Z,12.40
2023-01-30T11:16:18.779Z,12.32
2023-01-30T11:19:32.745Z,12.98
2023-01-30T11:22:37.477Z,15.48
2023-01-30T11:26:05.453Z,17.08
2023-01-30T11:29:31.110Z,17.23
2023-01-30T11:32:34.698Z,11.52
2023-01-30T11:35:44.327Z,13.13
2023-01-30T11:39:13.569Z,13.10
2023-01-30T11:42:20.552Z,14.45
2023-01-30T11:45:26.998Z,11.00
2023-01-30T11:49:03.261Z,10.68
2023-01-30T11:52:39.018Z,11.88
2023-01-30T11:56:29.101Z,12.30
2023-01-30T11:59:40.279Z,10.88
2023-01-30T12:03:09.668Z,8.65
2023-01-30T12:07:06.681Z,10.05
2023-01-30T12:10:58.605Z,8.85
2023-01-30T12:14:46.773Z,14.43
2023-01-30T12:18:35.463Z,10.05
2023-01-30T12:22:40.601Z,10.18
2023-01-30T12:25:56.349Z,9.82
2023-01-30T12:29:58.882Z,9.98
2023-01-30T12:33:06.062Z,11.57
2023-01-30T12:37:20.980Z,8.52
2023-01-30T12:41:12.465Z,9.98
2023-01-30T12:44:31.944Z,11.70
2023-01-30T12:47:46.870Z,11.35
2023-01-30T12:51:09.084Z,11.32
2023-01-30T12:54:55.876Z,9.25
2023-01-30T12:58:16.254Z,8.93
2023-01-30T13:01:25.326Z,9.73
2023-01-30T13:04:56.149Z,10.87
2023-01-30T13:08:21.751Z,13.93
2023-01-30T13:12:16.348Z,11.63
2023-01-30T13:15:42.332Z,15.65
2023-01-30T13:19:41.881Z,8.85
2023-01-30T13:23:20.562Z,14.18
2023-01-30T13:26:45.600Z,10.90
2023-01-30T13:30:14.699Z,11.20
2023-01-30T13:33:45.499Z,12.63
2023-01-30T13:37:20.701Z,11.55
2023-01-30T13:40:29.275Z,11.52
2023-01-30T13:43:56.821Z,11.60
2023-01-30T13:47:56.822Z,12.43
2023-01-30T13:51:37.945Z,12.43
2023-01-30T13:55:53.363Z,11.00
2023-01-30T13:59:25.245Z,12.95
2023-01-30T14:03:08.542Z,11.57
2023-01-30T14:06:39.676Z,14.43
2023-01-30T14:10:04.890Z,13.50
2023-01-30T14:13:12.822Z,13.60
2023-01-30T14:16:16.436Z,15.10
2023-01-30T14:19:46.052Z,14.45
2023-01-30T14:22:58.001Z,13.82
2023-01-30T14:26:02.060Z,13.98
2023-01-30T14:29:08.190Z,14.25
2023-01-30T14:32:14.677Z,14.77
2023-01-30T14:35:22.919Z,12.70
2023-01-30T14:38:28.795Z,21.58
2023-01-30T14:41:32.051Z,20.62
2023-01-30T14:44:55.741Z,15.60
2023-01-30T14:48:50.614Z,16.83
2023-01-30T14:59:37.097Z,18.05
2023-01-30T15:02:44.415Z,18.83
2023-01-30T15:05:48.608Z,22.87
2023-01-30T15:08:55.425Z,16.90
2023-01-30T15:12:29.878Z,17.00
2023-01-30T15:15:53.320Z,17.40
2023-01-30T15:19:33.295Z,17.30
2023-01-30T15:23:30.398Z,14.48
2023-01-30T15:26:59.678Z,18.42
2023-01-30T15:30:17.104Z,18.02
2023-01-30T15:33:49.234Z,24.55
2023-01-30T15:36:52.354Z,15.40
2023-01-30T15:40:16.594Z,18.15
2023-01-30T15:43:49.018Z,19.42
2023-01-30T15:47:38.298Z,17.37
2023-01-30T15:50:49.324Z,14.18
2023-01-30T15:54:15.714Z,23.02
2023-01-30T15:57:29.678Z,18.05
2023-01-30T16:00:44.763Z,22.13
2023-01-30T16:03:50.231Z,22.83
2023-01-30T16:06:55.886Z,28.35
2023-01-30T16:10:19.318Z,27.62
2023-01-30T16:13:23.917Z,27.10
2023-01-30T16:16:28.567Z,17.92
2023-01-30T16:19:37.507Z,30.85
2023-01-30T16:22:47.437Z,30.80
2023-01-30T16:25:53.967Z,25.92
2023-01-30T16:29:05.056Z,17.87
2023-01-30T16:32:19.744Z,22.37
2023-01-30T16:35:27.486Z,23.58
2023-01-30T16:38:36.898Z,30.27
2023-01-30T16:41:59.082Z,28.23
2023-01-30T16:45:13.450Z,28.20
2023-01-30T16:48:17.381Z,35.08
2023-01-30T16:51:31.628Z,33.95
2023-01-30T16:54:36.887Z,22.37
2023-01-30T16:57:44.124Z,29.40
2023-01-30T17:00:50.904Z,32.92
2023-01-30T17:04:03.237Z,22.05
2023-01-30T17:07:06.664Z,20.65
2023-01-30T17:10:27.951Z,23.60
2023-01-30T17:13:41.849Z,22.80
2023-01-30T17:17:08.331Z,21.42
2023-01-30T17:20:42.020Z,19.87
2023-01-30T17:23:50.310Z,22.80
2023-01-30T17:27:02.476Z,25.67
2023-01-30T17:30:16.917Z,19.42
2023-01-30T17:33:31.502Z,13.52
2023-01-30T17:36:34.615Z,20.60
2023-01-30T17:39:38.460Z,19.62
2023-01-30T17:43:01.220Z,18.95
2023-01-30T17:46:04.533Z,16.30
2023-01-30T17:49:13.740Z,19.05
2023-01-30T17:52:18.943Z,16.83
2023-01-30T17:55:22.372Z,16.92
2023-01-30T17:58:46.057Z,14.68
2023-01-30T18:01:51.544Z,14.07
2023-01-30T18:04:55.074Z,14.77
2023-01-30T18:07:58.061Z,19.60
2023-01-30T18:11:01.300Z,16.12
2023-01-30T18:14:07.006Z,15.93
2023-01-30T18:17:11.063Z,14.68
2023-01-30T18:20:33.726Z,13.52
2023-01-30T18:23:37.693Z,11.85
2023-01-30T18:27:01.901Z,16.17
2023-01-30T18:30:05.991Z,21.00
2023-01-30T18:33:09.381Z,12.65
2023-01-30T18:36:15.056Z,8.77
2023-01-30T18:39:18.833Z,10.85
2023-01-30T18:42:22.027Z,8.13
2023-01-30T18:45:25.140Z,10.45
2023-01-30T18:48:29.844Z,10.70
2023-01-30T18:51:34.205Z,8.43
2023-01-30T18:54:38.511Z,5.90
2023-01-30T18:57:41.454Z,7.43
2023-01-30T19:00:45.340Z,4.70
2023-01-30T19:03:49.061Z,5.70
2023-01-30T19:06:54.819Z,7.12
2023-01-30T19:09:59.534Z,3.53
2023-01-30T19:13:22.039Z,6.07
2023-01-30T19:16:28.247Z,3.22
2023-01-30T19:19:32.504Z,5.95
2023-01-30T19:22:35.551Z,3.53
2023-01-30T19:25:38.599Z,3.80
2023-01-30T19:28:44.558Z,4.78
2023-01-30T19:31:50.500Z,4.25
2023-01-30T19:34:53.579Z,4.45
2023-01-30T19:38:00.213Z,2.40
2023-01-30T19:41:05.414Z,2.87
2023-01-30T19:44:09.028Z,3.08
2023-01-30T19:47:12.203Z,2.22
2023-01-30T19:50:17.203Z,3.95
2023-01-30T19:53:20.387Z,2.92
2023-01-30T19:56:27.175Z,2.45
2023-01-30T19:59:30.395Z,2.62
2023-01-30T20:02:33.787Z,2.50
2023-01-30T20:05:37.098Z,2.83
2023-01-30T20:08:42.059Z,3.00
2023-01-30T20:12:05.367Z,3.35
2023-01-30T20:15:10.614Z,3.65
2023-01-30T20:18:14.068Z,3.25
2023-01-30T20:21:19.229Z,7.97
2023-01-30T20:24:22.611Z,4.37
2023-01-30T20:27:27.630Z,3.45
2023-01-30T20:30:31.558Z,3.33
2023-01-30T20:33:36.097Z,3.78
2023-01-30T20:36:47.846Z,3.65
2023-01-30T20:39:51.531Z,3.40
2023-01-30T20:42:54.763Z,3.28
2023-01-30T20:46:34.754Z,3.50
2023-01-30T20:49:38.406Z,3.10
2023-01-30T20:52:42.646Z,3.95
2023-01-30T20:55:46.033Z,3.45
2023-01-30T20:58:50.502Z,2.72
2023-01-30T21:01:54.406Z,3.05
2023-01-30T21:04:58.099Z,2.80
2023-01-30T21:08:01.378Z,3.30
2023-01-30T21:11:15.455Z,2.53
2023-01-30T21:14:19.270Z,2.75
2023-01-30T21:17:24.118Z,2.42
2023-01-30T21:20:27.660Z,3.03
2023-01-30T21:23:30.903Z,2.87
2023-01-30T21:26:38.040Z,3.42
2023-01-30T21:29:41.218Z,3.17
2023-01-30T21:32:44.393Z,2.45
2023-01-30T21:35:47.263Z,3.80
2023-01-30T21:39:09.179Z,2.37
2023-01-30T21:42:30.875Z,2.85
2023-01-30T21:45:33.802Z,3.25
2023-01-30T21:48:36.563Z,5.47
2023-01-30T21:51:44.837Z,2.53
2023-01-30T21:54:47.675Z,2.47
2023-01-30T21:57:51.705Z,2.72
2023-01-30T22:00:54.473Z,2.58
2023-01-30T22:04:03.315Z,2.60
2023-01-30T22:07:06.998Z,2.30
2023-01-30T22:10:16.925Z,4.00
2023-01-30T22:13:19.680Z,4.18
2023-01-30T22:16:25.803Z,3.75
2023-01-30T22:19:35.488Z,2.50
2023-01-30T22:22:38.821Z,2.25
2023-01-30T22:25:41.654Z,2.97
2023-01-30T22:28:45.217Z,2.45
2023-01-30T22:31:47.953Z,2.87
2023-01-30T22:34:51.843Z,2.28
2023-01-30T22:37:54.547Z,2.92
2023-01-30T22:41:14.538Z,2.55
2023-01-30T22:44:17.592Z,3.45
2023-01-30T22:47:40.982Z,2.92
2023-01-30T22:50:43.731Z,4.22
2023-01-30T22:53:51.428Z,2.42
2023-01-30T22:56:54.229Z,2.37
2023-01-30T23:00:00.383Z,2.55
2023-01-30T23:03:03.654Z,2.22
2023-01-30T23:06:17.109Z,2.35
2023-01-30T23:09:22.930Z,2.15
2023-01-30T23:12:44.871Z,2.03
2023-01-30T23:15:47.851Z,3.40
2023-01-30T23:19:00.803Z,1.92
2023-01-30T23:22:03.580Z,2.30
2023-01-30T23:25:07.039Z,2.47
2023-01-30T23:28:09.786Z,2.37
2023-01-30T23:31:16.418Z,3.47
2023-01-30T23:34:19.549Z,1.77
2023-01-30T23:37:42.541Z,2.03
2023-01-30T23:40:49.123Z,2.65
2023-01-30T23:43:53.162Z,2.62
2023-01-30T23:46:55.944Z,2.20
2023-01-30T23:49:59.467Z,4.32
2023-01-30T23:53:02.558Z,2.03
2023-01-30T23:56:06.660Z,2.05
2023-01-30T23:59:10.391Z,2.00
